Time;durP1;ratioP1;P1;durP2;ratioP2;P2;SDS_P1;SDS_P2;PMS_P1;PMS_P2;Temp;Humidity;BMP_temperature;BMP_pressure;BME280_temperature;BME280_humidity;BME280_pressure;Samples;Min_cycle;Max_cycle;Signal;HPM_P1;HPM_P2
2022/05/22 00:02:14;;;;;;;4.03;1.47;;;10.90;99.90;;;;;;6220888;23;20031;-92
2022/05/22 00:04:40;;;;;;;4.18;1.50;;;11.00;99.90;;;;;;6220748;23;20028;-89
2022/05/22 00:07:06;;;;;;;3.13;1.50;;;11.00;99.90;;;;;;6245707;23;20017;-89
2022/05/22 00:09:33;;;;;;;5.15;1.65;;;11.00;99.90;;;;;;6247318;23;20250;-90
2022/05/22 00:11:59;;;;;;;5.05;1.38;;;11.00;99.90;;;;;;6220843;23;20024;-91
2022/05/22 00:14:28;;;;;;;4.37;1.70;;;11.00;99.90;;;;;;6220388;23;20323;-90
2022/05/22 00:16:54;;;;;;;4.30;1.85;;;11.10;99.90;;;;;;6247497;23;20250;-90
2022/05/22 00:19:26;;;;;;;4.57;1.98;;;11.10;99.90;;;;;;6247169;23;20027;-90
2022/05/22 00:21:52;;;;;;;6.50;2.30;;;11.10;99.90;;;;;;6220756;23;20052;-91
2022/05/22 00:24:21;;;;;;;5.47;1.98;;;11.10;99.90;;;;;;6220409;23;20403;-91
2022/05/22 00:26:46;;;;;;;2.90;1.42;;;11.10;99.90;;;;;;6220444;23;20020;-89
2022/05/22 00:29:13;;;;;;;5.75;1.80;;;11.10;99.90;;;;;;6246585;23;20017;-87
2022/05/22 00:31:39;;;;;;;3.03;1.38;;;11.00;99.90;;;;;;6246920;23;20012;-85
2022/05/22 00:34:05;;;;;;;4.43;1.50;;;11.00;99.90;;;;;;6219848;23;20019;-85
2022/05/22 00:36:31;;;;;;;5.20;1.35;;;10.90;99.90;;;;;;6219746;23;20032;-84
2022/05/22 00:38:57;;;;;;;6.40;2.20;;;10.90;99.90;;;;;;6246528;23;20030;-87
2022/05/22 00:41:23;;;;;;;3.47;1.60;;;10.80;99.90;;;;;;6246385;23;20024;-86
2022/05/22 00:43:51;;;;;;;3.90;1.30;;;10.80;99.90;;;;;;6220173;23;20396;-86
2022/05/22 00:46:19;;;;;;;2.17;1.10;;;10.80;99.90;;;;;;6246954;23;20095;-89
2022/05/22 00:48:48;;;;;;;3.83;1.50;;;10.80;99.90;;;;;;6219855;23;20043;-88
2022/05/22 00:51:47;;;;;;;4.03;1.45;;;10.80;99.90;;;;;;6220286;23;20106;-90
2022/05/22 00:54:27;;;;;;;4.80;1.85;;;10.80;99.90;;;;;;6203437;23;20511;-85
2022/05/22 00:57:00;;;;;;;3.95;1.70;;;10.70;99.90;;;;;;6220036;23;20070;-87
2022/05/22 00:59:35;;;;;;;5.18;2.00;;;10.70;99.90;;;;;;6246804;23;20023;-87
2022/05/22 01:02:02;;;;;;;4.28;1.95;;;10.70;99.90;;;;;;6219885;23;20016;-85
2022/05/22 01:04:31;;;;;;;5.53;1.92;;;10.80;99.90;;;;;;6220157;23;20027;-92
2022/05/22 01:06:57;;;;;;;4.65;1.90;;;10.80;99.90;;;;;;6219971;23;20346;-90
2022/05/22 01:09:23;;;;;;;5.10;1.90;;;10.80;99.90;;;;;;6246771;23;20016;-90
2022/05/22 01:11:55;;;;;;;3.97;1.87;;;10.80;99.90;;;;;;6220288;23;20393;-90
2022/05/22 01:14:22;;;;;;;5.70;1.95;;;10.80;99.90;;;;;;6219969;23;20099;-89
2022/05/22 01:16:51;;;;;;;5.68;2.25;;;10.70;99.90;;;;;;6220334;23;20070;-92
2022/05/22 01:19:23;;;;;;;4.13;1.90;;;10.70;99.90;;;;;;6219890;23;20426;-86
2022/05/22 01:22:12;;;;;;;5.00;2.00;;;10.70;99.90;;;;;;6219753;23;20063;-86
2022/05/22 01:24:38;;;;;;;4.07;2.03;;;10.70;99.90;;;;;;6219805;23;20052;-88
2022/05/22 01:27:09;;;;;;;3.58;1.80;;;10.60;99.90;;;;;;6219927;23;20380;-94
2022/05/22 01:29:35;;;;;;;5.10;2.10;;;10.60;99.90;;;;;;6219896;23;20048;-91
2022/05/22 01:32:01;;;;;;;;;;;10.50;99.90;;;;;;6220271;23;20507;-92
2022/05/22 01:34:27;;;;;;;3.80;1.73;;;10.50;99.90;;;;;;6246617;23;19916;-92
2022/05/22 01:36:52;;;;;;;5.13;2.77;;;10.50;99.90;;;;;;6219789;23;20020;-92
2022/05/22 01:39:18;;;;;;;4.13;1.70;;;10.50;99.90;;;;;;6220375;23;20464;-89
2022/05/22 01:41:44;;;;;;;4.73;1.87;;;10.40;99.90;;;;;;6247197;23;20446;-90
2022/05/22 01:44:10;;;;;;;5.47;2.00;;;10.50;99.90;;;;;;6222312;23;20020;-90
2022/05/22 01:46:36;;;;;;;5.72;2.17;;;10.50;99.90;;;;;;6248743;23;20024;-88
2022/05/22 01:49:02;;;;;;;5.53;2.00;;;10.50;99.90;;;;;;6225207;23;20016;-88
2022/05/22 01:51:32;;;;;;;4.32;2.05;;;10.50;99.90;;;;;;6222372;23;20043;-89
2022/05/22 01:54:01;;;;;;;5.38;1.80;;;10.50;99.90;;;;;;6219265;23;20055;-92
2022/05/22 01:56:31;;;;;;;4.40;1.88;;;10.50;99.90;;;;;;6219706;23;20023;-92
2022/05/22 01:58:57;;;;;;;3.63;1.83;;;10.40;99.90;;;;;;6219517;23;20020;-91
2022/05/22 02:01:23;;;;;;;4.00;1.50;;;10.40;99.90;;;;;;6219646;23;20027;-91
2022/05/22 02:03:48;;;;;;;3.05;1.25;;;10.30;99.90;;;;;;6246318;23;20062;-90
2022/05/22 02:06:14;;;;;;;3.93;1.50;;;10.30;99.90;;;;;;6244451;23;20062;-91
2022/05/22 02:08:42;;;;;;;4.53;1.77;;;10.30;99.90;;;;;;6244943;23;20020;-90
2022/05/22 02:11:08;;;;;;;3.70;1.50;;;10.20;99.90;;;;;;6219651;23;20441;-92
2022/05/22 02:13:36;;;;;;;3.05;1.00;;;10.20;99.90;;;;;;6246486;23;20024;-91
2022/05/22 02:16:03;;;;;;;2.50;1.02;;;10.20;99.90;;;;;;6219331;23;20014;-93
2022/05/22 02:18:28;;;;;;;2.47;1.10;;;10.10;99.90;;;;;;6246663;23;20016;-92
2022/05/22 02:20:55;;;;;;;1.87;0.70;;;10.10;99.90;;;;;;6219677;23;20500;-95
2022/05/22 02:23:22;;;;;;;1.58;0.60;;;10.00;99.90;;;;;;6219112;23;20309;-94
2022/05/22 02:25:54;;;;;;;1.55;0.57;;;9.90;99.90;;;;;;6246024;23;20019;-92
2022/05/22 02:28:21;;;;;;;1.00;0.40;;;9.80;99.90;;;;;;6219227;23;20449;-85
2022/05/22 02:30:51;;;;;;;0.90;0.38;;;9.70;99.90;;;;;;6245752;23;20016;-86
2022/05/22 02:33:17;;;;;;;1.25;0.55;;;9.60;99.90;;;;;;6219190;23;20074;-86
2022/05/22 02:35:43;;;;;;;1.98;0.80;;;9.50;99.90;;;;;;6219054;23;20020;-92
2022/05/22 02:38:10;;;;;;;3.15;1.00;;;9.60;99.90;;;;;;6246244;23;20016;-93
2022/05/22 02:40:37;;;;;;;3.20;0.90;;;9.50;99.90;;;;;;6246140;23;20345;-88
2022/05/22 02:43:05;;;;;;;2.17;0.93;;;9.50;99.90;;;;;;6246107;23;20020;-89
2022/05/22 02:45:34;;;;;;;2.80;1.20;;;9.60;99.90;;;;;;6218866;23;20020;-89
2022/05/22 02:48:00;;;;;;;2.25;0.88;;;9.60;99.90;;;;;;6245944;23;20052;-91
2022/05/22 02:50:27;;;;;;;1.95;0.95;;;9.60;99.90;;;;;;6219383;23;20392;-87
2022/05/22 02:52:53;;;;;;;2.15;0.90;;;9.60;99.90;;;;;;6219482;23;20051;-92
2022/05/22 02:55:20;;;;;;;1.35;0.73;;;9.60;99.90;;;;;;6219293;23;20023;-86
2022/05/22 02:57:46;;;;;;;2.08;0.80;;;9.60;99.90;;;;;;6219273;23;20022;-91
2022/05/22 03:00:26;;;;;;;2.05;0.90;;;9.60;99.90;;;;;;6219559;23;20016;-92
2022/05/22 03:02:52;;;;;;;2.45;0.88;;;9.60;99.90;;;;;;6194070;23;20016;-89
2022/05/22 03:05:18;;;;;;;1.27;0.50;;;9.60;99.90;;;;;;6245548;23;20023;-90
2022/05/22 03:07:44;;;;;;;0.77;0.40;;;9.60;99.90;;;;;;6219183;23;20066;-88
2022/05/22 03:10:12;;;;;;;2.72;0.63;;;9.50;99.90;;;;;;6218817;23;20457;-87
2022/05/22 03:12:38;;;;;;;1.35;0.55;;;9.60;99.90;;;;;;6218735;23;20008;-86
2022/05/22 03:15:08;;;;;;;0.85;0.40;;;9.50;99.90;;;;;;6218572;23;20016;-86
2022/05/22 03:17:34;;;;;;;0.63;0.35;;;9.40;99.90;;;;;;6219344;23;20012;-85
2022/05/22 03:20:00;;;;;;;0.68;0.40;;;9.40;99.90;;;;;;6220135;23;20077;-88
2022/05/22 03:22:26;;;;;;;1.15;0.45;;;9.40;99.90;;;;;;6196132;23;20027;-89
2022/05/22 03:24:52;;;;;;;0.97;0.37;;;9.30;99.90;;;;;;6221084;23;20020;-91
2022/05/22 03:27:20;;;;;;;0.97;0.30;;;9.20;99.90;;;;;;6221288;23;20269;-95
2022/05/22 03:29:47;;;;;;;0.68;0.35;;;9.10;99.90;;;;;;6247795;23;20312;-86
2022/05/22 03:32:13;;;;;;;1.17;0.52;;;9.10;99.90;;;;;;6220490;23;20058;-89
2022/05/22 03:34:39;;;;;;;1.98;0.60;;;9.00;99.90;;;;;;6247427;23;20012;-92
2022/05/22 03:37:06;;;;;;;1.67;0.60;;;9.00;99.90;;;;;;6220646;23;20028;-93
2022/05/22 03:39:31;;;;;;;2.67;0.80;;;9.00;99.90;;;;;;6220659;23;20027;-86
2022/05/22 03:41:58;;;;;;;2.33;0.90;;;9.00;99.90;;;;;;6245401;23;20382;-86
2022/05/22 03:44:24;;;;;;;2.25;0.90;;;9.10;99.90;;;;;;6220468;23;20020;-89
2022/05/22 03:46:50;;;;;;;3.05;1.30;;;9.10;99.90;;;;;;6220498;23;20020;-84
2022/05/22 03:49:16;;;;;;;2.17;0.90;;;9.10;99.90;;;;;;6245763;23;20024;-86
2022/05/22 03:51:42;;;;;;;1.93;0.90;;;9.10;99.90;;;;;;6220336;23;20023;-87
2022/05/22 03:54:08;;;;;;;1.95;0.68;;;9.20;99.90;;;;;;6220500;23;20020;-90
2022/05/22 03:56:35;;;;;;;1.75;0.65;;;9.10;99.90;;;;;;6220274;23;20446;-92
2022/05/22 03:59:02;;;;;;;1.65;0.60;;;9.10;99.90;;;;;;6220614;23;20023;-85
2022/05/22 04:01:29;;;;;;;1.00;0.52;;;9.10;99.90;;;;;;6220578;23;20026;-85
2022/05/22 04:03:54;;;;;;;1.15;0.52;;;9.20;99.90;;;;;;6220434;23;20020;-89
2022/05/22 04:06:20;;;;;;;1.93;0.60;;;9.20;99.90;;;;;;6245536;23;20020;-88
2022/05/22 04:08:46;;;;;;;2.33;0.90;;;9.20;99.90;;;;;;6245813;23;20162;-88
2022/05/22 04:11:16;;;;;;;1.77;0.73;;;9.20;99.90;;;;;;6220679;23;20012;-91
2022/05/22 04:13:42;;;;;;;2.25;1.00;;;9.20;99.90;;;;;;6220683;23;20022;-85
2022/05/22 04:16:07;;;;;;;2.22;0.80;;;9.20;99.90;;;;;;6220626;23;20087;-88
2022/05/22 04:18:33;;;;;;;2.30;1.00;;;9.30;99.90;;;;;;6220621;23;20487;-95
2022/05/22 04:21:00;;;;;;;2.63;1.08;;;9.30;99.90;;;;;;6220893;23;20020;-86
2022/05/22 04:26:11;;;;;;;2.08;0.77;;;9.40;99.90;;;;;;6220673;23;20370;-94
2022/05/22 04:28:37;;;;;;;1.95;0.80;;;9.40;99.90;;;;;;6195649;23;20024;-93
2022/05/22 04:31:05;;;;;;;2.58;1.05;;;9.50;99.90;;;;;;6219975;23;20062;-89
2022/05/22 04:33:32;;;;;;;2.17;0.90;;;9.50;99.90;;;;;;6246857;23;20020;-90
2022/05/22 04:35:59;;;;;;;3.15;1.08;;;9.50;99.90;;;;;;6220226;23;20012;-86
2022/05/22 04:38:24;;;;;;;;;;;9.50;99.90;;;;;;6221126;23;20475;-95
2022/05/22 04:40:58;;;;;;;3.85;1.65;;;9.60;99.90;;;;;;6220805;23;19920;-91
2022/05/22 04:43:25;;;;;;;3.22;1.17;;;9.70;99.90;;;;;;6220191;23;20066;-91
2022/05/22 04:45:51;;;;;;;6.07;1.60;;;9.70;99.90;;;;;;6220355;23;20019;-88
2022/05/22 04:48:18;;;;;;;3.05;1.42;;;9.80;99.90;;;;;;6220384;23;20070;-87
2022/05/22 04:50:48;;;;;;;3.30;1.33;;;9.90;99.90;;;;;;6220211;23;20012;-91
2022/05/22 04:53:17;;;;;;;3.45;1.58;;;9.90;99.90;;;;;;6220203;23;20031;-90
2022/05/22 04:55:43;;;;;;;3.80;1.88;;;10.00;99.90;;;;;;6220189;23;20023;-87
2022/05/22 04:58:09;;;;;;;3.40;1.40;;;10.10;99.90;;;;;;6246938;23;20016;-89
2022/05/22 05:00:35;;;;;;;3.67;1.30;;;10.10;99.90;;;;;;6220568;23;20087;-91
2022/05/22 05:03:01;;;;;;;7.20;2.63;;;10.20;99.90;;;;;;6195143;23;20020;-92
2022/05/22 05:05:28;;;;;;;4.35;1.50;;;10.30;99.90;;;;;;6222271;23;20020;-88
2022/05/22 05:07:54;;;;;;;5.38;2.03;;;10.40;99.90;;;;;;6249090;23;20012;-87
2022/05/22 05:10:20;;;;;;;4.18;1.90;;;10.50;99.90;;;;;;6249540;23;20476;-88
2022/05/22 05:12:47;;;;;;;5.22;2.47;;;10.60;99.90;;;;;;6221327;23;20066;-87
2022/05/22 05:15:17;;;;;;;5.80;2.30;;;10.80;99.90;;;;;;6246356;23;20115;-87
2022/05/22 05:17:44;;;;;;;8.52;2.17;;;10.90;99.90;;;;;;6246376;23;20016;-85
2022/05/22 05:20:11;;;;;;;5.97;2.17;;;11.00;99.90;;;;;;6246128;23;20027;-85
2022/05/22 05:22:37;;;;;;;6.07;2.33;;;11.20;99.90;;;;;;6219638;23;20091;-86
2022/05/22 05:25:04;;;;;;;5.17;2.40;;;11.40;99.90;;;;;;6219277;23;20473;-85
2022/05/22 05:27:30;;;;;;;6.13;2.20;;;11.50;99.90;;;;;;6246074;23;20024;-88
2022/05/22 05:29:55;;;;;;;5.67;2.50;;;11.70;99.90;;;;;;6244627;23;20050;-85
2022/05/22 05:32:22;;;;;;;5.60;2.13;;;11.70;99.90;;;;;;6244274;23;20047;-85
2022/05/22 05:34:56;;;;;;;6.38;2.53;;;11.80;99.90;;;;;;6219280;23;20091;-91
2022/05/22 05:37:22;;;;;;;6.00;2.40;;;12.00;99.90;;;;;;6218825;23;20016;-89
2022/05/22 05:39:47;;;;;;;4.73;2.23;;;12.10;99.90;;;;;;6244597;23;20103;-86
2022/05/22 05:42:13;;;;;;;5.67;1.90;;;12.20;99.90;;;;;;6193700;23;20008;-86
2022/05/22 05:44:39;;;;;;;6.13;2.17;;;12.30;99.90;;;;;;6244402;23;20016;-86
2022/05/22 05:47:05;;;;;;;6.77;2.20;;;12.40;99.90;;;;;;6246179;23;20012;-86
2022/05/22 05:49:30;;;;;;;6.53;2.40;;;12.60;99.90;;;;;;6219015;23;20016;-88
2022/05/22 05:51:56;;;;;;;5.13;2.30;;;12.90;99.90;;;;;;6219069;23;20460;-85
2022/05/22 05:54:22;;;;;;;6.43;2.37;;;13.10;99.90;;;;;;6244399;23;20093;-85
2022/05/22 05:56:49;;;;;;;4.90;2.10;;;13.20;99.90;;;;;;6244251;23;20020;-85
2022/05/22 05:59:14;;;;;;;5.82;2.10;;;13.30;99.90;;;;;;6219076;23;20430;-88
2022/05/22 06:01:40;;;;;;;6.20;1.90;;;13.40;99.90;;;;;;6219325;23;20031;-91
2022/05/22 06:04:06;;;;;;;6.20;1.93;;;13.50;99.90;;;;;;6219121;23;20051;-86
2022/05/22 06:06:31;;;;;;;3.80;1.70;;;13.50;99.90;;;;;;6245917;23;20020;-90
2022/05/22 06:08:57;;;;;;;5.27;1.73;;;13.50;99.90;;;;;;6244701;23;20035;-95
2022/05/22 06:11:23;;;;;;;6.87;2.93;;;13.50;99.90;;;;;;6246076;23;20055;-86
2022/05/22 06:13:49;;;;;;;6.63;2.10;;;13.60;99.90;;;;;;6219017;23;20048;-86
2022/05/22 06:16:15;;;;;;;6.40;2.58;;;13.80;99.90;;;;;;6219279;23;20453;-86
2022/05/22 06:18:42;;;;;;;6.87;2.33;;;14.00;99.90;;;;;;6218838;23;20019;-86
2022/05/22 06:21:14;;;;;;;6.90;1.65;;;14.20;99.90;;;;;;6218782;23;20024;-84
2022/05/22 06:23:40;;;;;;;5.05;1.85;;;14.30;99.90;;;;;;6218807;23;20020;-91
2022/05/22 06:26:11;;;;;;;6.28;1.65;;;14.30;99.90;;;;;;6194086;23;20027;-84
2022/05/22 06:28:37;;;;;;;5.75;1.63;;;14.40;99.90;;;;;;6193775;23;20027;-92
2022/05/22 06:31:04;;;;;;;3.88;1.55;;;14.40;99.90;;;;;;6245842;23;20024;-86
2022/05/22 06:33:31;;;;;;;4.95;1.50;;;14.50;99.90;;;;;;6245916;23;20089;-88
2022/05/22 06:35:56;;;;;;;;;;;14.60;99.90;;;;;;6246551;23;20017;-87
2022/05/22 06:41:09;;;;;;;6.28;1.38;;;14.70;99.90;;;;;;6218638;23;20047;-86
2022/05/22 06:43:35;;;;;;;5.50;1.30;;;14.90;99.90;;;;;;6245710;23;20016;-87
2022/05/22 06:46:10;;;;;;;4.28;1.27;;;15.20;99.90;;;;;;6245719;23;20134;-90
2022/05/22 06:48:36;;;;;;;5.43;1.27;;;15.60;99.90;;;;;;6194025;23;20016;-89
2022/05/22 06:51:01;;;;;;;2.80;0.80;;;15.90;99.90;;;;;;6194489;23;20035;-89
2022/05/22 06:53:27;;;;;;;4.10;1.05;;;16.10;99.90;;;;;;6220398;23;20024;-94
2022/05/22 06:55:53;;;;;;;3.35;1.35;;;16.30;99.90;;;;;;6247766;23;20078;-89
2022/05/22 06:58:19;;;;;;;5.35;1.25;;;16.60;99.90;;;;;;6221052;23;20012;-86
2022/05/22 07:01:09;;;;;;;2.90;0.90;;;16.70;99.90;;;;;;6221164;23;20063;-87
2022/05/22 07:04:03;;;;;;;4.10;1.25;;;16.70;99.90;;;;;;6221321;23;20278;-89
2022/05/22 07:07:08;;;;;;;4.22;1.30;;;16.80;99.90;;;;;;6221672;23;20531;-93
2022/05/22 07:12:59;;;;;;;2.53;0.93;;;18.30;99.90;;;;;;6239953;22;20094;-93
2022/05/22 07:20:56;;;;;;;5.78;1.30;;;20.00;99.90;;;;;;6231954;22;20024;-93
2022/05/22 07:23:22;;;;;;;;;;;20.20;99.90;;;;;;6222333;23;20025;-93
2022/05/22 07:26:12;;;;;;;4.00;1.13;;;20.00;99.90;;;;;;6247070;23;20251;-95
2022/05/22 08:11:05;;;;;;;3.25;0.60;;;16.40;99.90;;;;;;6213870;23;20088;-91
2022/05/22 08:13:31;;;;;;;3.45;1.10;;;16.40;99.90;;;;;;6190397;23;20055;-91
2022/05/22 08:15:56;;;;;;;3.37;0.70;;;16.40;99.90;;;;;;6165878;23;20008;-91
2022/05/22 08:18:22;;;;;;;4.93;0.93;;;16.40;99.90;;;;;;6190333;23;20343;-91
2022/05/22 08:20:49;;;;;;;1.83;0.60;;;16.40;99.90;;;;;;6190188;23;20016;-90
2022/05/22 08:23:21;;;;;;;3.60;0.80;;;16.30;99.90;;;;;;6193587;23;20021;-89
2022/05/22 08:25:47;;;;;;;1.60;0.75;;;16.40;99.90;;;;;;6172562;23;20016;-93
2022/05/22 08:28:14;;;;;;;3.30;0.70;;;16.30;99.90;;;;;;6199198;23;20091;-93
2022/05/22 08:30:40;;;;;;;2.83;0.90;;;16.40;99.90;;;;;;6195627;23;20023;-90
2022/05/22 08:33:06;;;;;;;2.85;0.75;;;16.30;99.90;;;;;;6165422;23;20027;-90
2022/05/22 08:35:35;;;;;;;4.32;0.60;;;16.30;99.90;;;;;;6190078;23;20488;-86
2022/05/22 08:38:13;;;;;;;2.80;0.68;;;16.30;99.90;;;;;;6189866;23;20108;-85
2022/05/22 08:40:48;;;;;;;2.22;0.70;;;16.10;99.90;;;;;;6189580;23;20450;-87
2022/05/22 08:43:21;;;;;;;3.05;0.73;;;16.10;99.90;;;;;;6189696;23;20056;-86
2022/05/22 08:46:00;;;;;;;9.15;3.15;;;16.20;99.90;;;;;;6189871;23;20067;-85
2022/05/22 08:48:28;;;;;;;3.15;0.93;;;16.30;99.90;;;;;;6216131;23;20016;-86
2022/05/22 08:50:57;;;;;;;2.42;0.70;;;16.30;99.90;;;;;;6216156;23;20028;-85
2022/05/22 08:54:04;;;;;;;2.20;0.52;;;16.30;99.90;;;;;;6216280;23;20013;-86
2022/05/22 08:59:37;;;;;;;2.85;0.80;;;16.20;99.90;;;;;;6189477;23;20067;-91
2022/05/22 09:02:03;;;;;;;2.45;0.70;;;16.30;99.90;;;;;;6189429;23;20013;-89
2022/05/22 09:04:36;;;;;;;3.83;0.90;;;16.30;99.90;;;;;;6215666;23;20028;-92
2022/05/22 09:07:50;;;;;;;2.17;0.60;;;16.40;99.90;;;;;;6189091;23;20024;-85
2022/05/22 09:10:43;;;;;;;1.98;0.80;;;16.40;99.90;;;;;;6046766;23;20057;-90
2022/05/22 09:13:26;;;;;;;3.15;0.70;;;16.40;99.90;;;;;;6070757;23;20025;-88
2022/05/22 09:16:35;;;;;;;2.53;0.60;;;16.30;99.90;;;;;;6148227;23;20052;-91
2022/05/22 09:19:45;;;;;;;4.22;1.63;;;16.30;99.90;;;;;;6044925;23;20142;-88
2022/05/22 09:22:41;;;;;;;5.70;0.90;;;16.20;99.90;;;;;;6063853;23;20030;-88
2022/05/22 09:25:25;;;;;;;2.53;0.82;;;16.20;99.90;;;;;;6162691;23;20024;-87
2022/05/22 09:28:17;;;;;;;2.70;0.70;;;16.30;99.90;;;;;;6188308;23;20019;-87
2022/05/22 09:31:20;;;;;;;2.10;0.75;;;16.40;99.90;;;;;;6188343;23;20019;-87
2022/05/22 09:34:09;;;;;;;2.20;0.70;;;16.40;99.90;;;;;;6188944;23;20020;-91
2022/05/22 09:37:14;;;;;;;1.63;0.60;;;16.60;99.90;;;;;;6189374;23;20074;-90
2022/05/22 09:39:50;;;;;;;1.88;0.68;;;16.60;99.90;;;;;;6150283;23;20021;-85
2022/05/22 09:42:29;;;;;;;3.55;0.68;;;16.60;99.90;;;;;;6189370;23;20095;-87
2022/05/22 09:45:11;;;;;;;3.25;0.60;;;16.60;99.90;;;;;;6163464;23;20343;-89
2022/05/22 09:48:16;;;;;;;4.45;0.80;;;16.70;99.90;;;;;;6189150;23;20493;-92
2022/05/22 09:51:08;;;;;;;1.33;0.50;;;16.70;99.90;;;;;;6188316;23;20032;-88
2022/05/22 09:53:52;;;;;;;1.08;0.57;;;16.70;99.90;;;;;;6171785;23;20482;-92
2022/05/22 09:56:58;;;;;;;2.28;0.60;;;16.80;99.90;;;;;;6189440;23;20105;-91
2022/05/22 09:59:42;;;;;;;1.42;0.50;;;16.80;99.90;;;;;;6164198;23;20034;-89
2022/05/22 10:02:18;;;;;;;3.22;0.60;;;16.80;99.90;;;;;;6189879;23;20095;-95
2022/05/22 10:05:24;;;;;;;2.00;0.60;;;16.80;99.90;;;;;;6189608;23;20458;-89
2022/05/22 10:08:02;;;;;;;1.58;0.40;;;16.90;99.90;;;;;;6116331;23;20016;-84
2022/05/22 10:11:17;;;;;;;2.30;0.70;;;17.00;99.90;;;;;;6187398;23;20469;-89
2022/05/22 10:14:10;;;;;;;1.08;0.43;;;17.00;99.90;;;;;;6205381;23;20016;-89
2022/05/22 10:17:13;;;;;;;2.20;0.50;;;17.10;99.90;;;;;;6214377;23;20044;-92
2022/05/22 10:20:07;;;;;;;2.70;0.60;;;17.10;99.90;;;;;;6215884;23;20023;-91
2022/05/22 10:22:54;;;;;;;3.70;0.50;;;17.20;99.90;;;;;;6189114;23;20492;-87
2022/05/22 10:25:41;;;;;;;2.53;0.40;;;17.20;99.90;;;;;;6189617;23;20020;-89
2022/05/22 10:28:16;;;;;;;2.92;0.47;;;17.20;99.90;;;;;;6187518;23;20021;-95
2022/05/22 10:30:49;;;;;;;3.15;0.50;;;17.30;99.90;;;;;;6187731;23;20454;-90
2022/05/22 10:33:29;;;;;;;2.72;0.63;;;17.30;99.90;;;;;;6189174;23;20021;-86
2022/05/22 10:36:14;;;;;;;1.55;0.45;;;17.40;99.90;;;;;;6164093;23;20016;-91
2022/05/22 10:38:42;;;;;;;2.15;0.68;;;17.40;99.90;;;;;;6188205;23;20016;-87
2022/05/22 10:44:15;;;;;;;1.90;0.50;;;17.50;99.90;;;;;;6188650;23;20028;-89
2022/05/22 10:46:46;;;;;;;1.52;0.50;;;17.60;99.90;;;;;;6164021;23;20099;-89
2022/05/22 10:49:11;;;;;;;0.80;0.30;;;17.60;99.90;;;;;;6188743;23;20020;-92
2022/05/22 10:51:37;;;;;;;0.98;0.40;;;17.60;99.90;;;;;;6188984;23;20023;-90
2022/05/22 10:54:03;;;;;;;3.22;0.50;;;17.70;99.90;;;;;;6189793;23;20143;-93
2022/05/22 10:56:32;;;;;;;1.10;0.40;;;17.70;99.90;;;;;;6189155;23;20067;-90
2022/05/22 10:59:07;;;;;;;2.30;0.50;;;17.80;99.90;;;;;;6189348;23;20024;-91
2022/05/22 11:01:39;;;;;;;1.58;0.40;;;17.90;99.90;;;;;;6215877;23;20019;-92
2022/05/22 11:04:16;;;;;;;1.73;0.40;;;18.10;99.90;;;;;;6188864;23;20430;-89
2022/05/22 11:06:59;;;;;;;0.80;0.30;;;18.20;99.90;;;;;;6215437;23;20017;-92
2022/05/22 11:09:28;;;;;;;2.47;0.55;;;18.20;99.90;;;;;;6188843;23;20097;-90
2022/05/22 11:12:08;;;;;;;3.95;0.38;;;18.20;99.90;;;;;;6189080;23;20020;-91
2022/05/22 11:14:35;;;;;;;1.80;0.43;;;18.30;99.90;;;;;;6188795;23;20025;-91
2022/05/22 11:17:30;;;;;;;1.75;0.35;;;18.50;99.90;;;;;;6189256;23;20458;-88
2022/05/22 11:20:01;;;;;;;2.17;0.73;;;18.60;99.90;;;;;;6158499;23;20028;-91
2022/05/22 11:22:34;;;;;;;4.25;0.85;;;18.80;99.90;;;;;;6188955;23;20012;-91
2022/05/22 11:25:20;;;;;;;2.55;0.55;;;18.90;99.90;;;;;;6215448;23;20438;-87
2022/05/22 11:28:15;;;;;;;1.55;0.60;;;19.00;99.90;;;;;;6214218;23;20059;-90
2022/05/22 11:31:01;;;;;;;3.78;0.50;;;19.10;99.90;;;;;;6172849;23;20067;-88
2022/05/22 11:33:46;;;;;;;1.25;0.32;;;19.10;99.90;;;;;;6164796;23;20024;-94
2022/05/22 11:36:45;;;;;;;1.92;0.50;;;19.00;99.90;;;;;;6164755;23;20060;-92
2022/05/22 11:39:45;;;;;;;2.33;0.40;;;18.90;99.90;;;;;;6165672;23;20039;-90
2022/05/22 11:42:38;;;;;;;2.33;0.68;;;18.90;99.90;;;;;;6190446;23;20028;-87
2022/05/22 11:45:10;;;;;;;3.45;0.50;;;18.80;99.90;;;;;;6165804;23;20027;-88
2022/05/22 11:48:00;;;;;;;2.28;0.32;;;18.60;99.90;;;;;;6215298;23;20063;-89
2022/05/22 11:51:05;;;;;;;0.70;0.30;;;18.50;99.90;;;;;;6216938;23;20021;-88
2022/05/22 11:53:55;;;;;;;0.70;0.30;;;18.40;99.90;;;;;;6215295;23;20016;-91
2022/05/22 11:56:43;;;;;;;0.93;0.30;;;18.50;99.90;;;;;;6189910;23;20458;-88
2022/05/22 11:59:38;;;;;;;1.90;0.57;;;18.70;99.90;;;;;;6189833;23;20017;-87
2022/05/22 12:02:24;;;;;;;1.02;0.40;;;18.80;99.90;;;;;;6165056;23;20477;-87
2022/05/22 12:05:09;;;;;;;2.15;0.38;;;18.90;99.90;;;;;;6164808;23;20020;-89
2022/05/22 12:08:17;;;;;;;2.00;0.40;;;19.10;99.90;;;;;;6189860;23;20017;-88
2022/05/22 12:10:56;;;;;;;3.70;0.65;;;19.20;99.80;;;;;;6174211;23;20023;-91
2022/05/22 12:13:33;;;;;;;1.80;0.43;;;19.20;99.30;;;;;;6189894;23;20323;-86
2022/05/22 12:16:16;;;;;;;0.77;0.32;;;19.30;99.30;;;;;;6189795;23;20346;-88
2022/05/22 12:18:58;;;;;;;0.50;0.40;;;19.40;99.00;;;;;;6189850;23;20346;-87
2022/05/22 12:21:40;;;;;;;1.35;0.57;;;19.70;98.90;;;;;;6189796;23;20091;-88
2022/05/22 12:24:18;;;;;;;2.03;0.63;;;19.80;98.30;;;;;;6189711;23;20017;-87
2022/05/22 12:26:45;;;;;;;1.65;0.45;;;20.00;97.80;;;;;;6216587;23;20095;-88
2022/05/22 12:29:25;;;;;;;1.40;0.50;;;20.10;97.80;;;;;;6189557;23;20016;-87
2022/05/22 12:31:59;;;;;;;1.20;0.50;;;20.30;97.60;;;;;;6164755;23;20024;-88
2022/05/22 12:34:48;;;;;;;2.33;0.55;;;20.50;97.70;;;;;;6216319;23;20027;-88
2022/05/22 12:37:44;;;;;;;1.20;0.40;;;20.70;97.40;;;;;;6189448;23;20012;-88
2022/05/22 12:40:19;;;;;;;2.92;0.60;;;20.90;98.00;;;;;;6179591;23;20036;-88
2022/05/22 12:42:52;;;;;;;2.58;0.63;;;21.00;97.90;;;;;;6189604;23;20048;-87
2022/05/22 12:45:21;;;;;;;0.95;0.40;;;21.10;97.50;;;;;;6189580;23;20059;-88
2022/05/22 12:47:49;;;;;;;1.48;0.45;;;21.10;96.10;;;;;;6215986;23;20019;-88
2022/05/22 12:50:48;;;;;;;1.73;0.43;;;21.20;96.10;;;;;;6164364;23;20551;-88
2022/05/22 12:53:20;;;;;;;1.25;0.40;;;21.20;93.90;;;;;;6193791;23;20458;-88
2022/05/22 12:55:46;;;;;;;2.47;0.50;;;21.20;94.70;;;;;;6189540;23;20016;-87
2022/05/22 12:58:27;;;;;;;;;;;21.10;94.80;;;;;;6216580;23;20020;-87
2022/05/22 13:00:55;;;;;;;1.90;0.68;;;21.00;95.70;;;;;;6189312;23;19915;-88
2022/05/22 13:03:30;;;;;;;1.48;0.60;;;20.70;95.30;;;;;;6188078;23;20017;-88
2022/05/22 13:06:01;;;;;;;0.90;0.40;;;20.60;95.70;;;;;;6215991;23;20023;-87
2022/05/22 13:08:41;;;;;;;2.05;0.50;;;20.50;95.30;;;;;;6189217;23;20350;-88
2022/05/22 13:11:20;;;;;;;2.22;0.60;;;20.30;95.00;;;;;;6189180;23;20070;-87
2022/05/22 13:13:50;;;;;;;1.95;0.50;;;20.20;95.70;;;;;;6189025;23;20031;-87
2022/05/22 13:16:28;;;;;;;1.52;0.50;;;20.10;96.20;;;;;;6216024;23;20052;-87
2022/05/22 13:18:55;;;;;;;3.17;0.80;;;20.00;96.60;;;;;;6216015;23;20074;-87
2022/05/22 13:21:35;;;;;;;2.80;0.77;;;20.00;96.70;;;;;;6189246;23;20020;-86
2022/05/22 13:24:25;;;;;;;2.22;0.40;;;20.00;97.30;;;;;;6164046;23;20020;-87
2022/05/22 13:27:22;;;;;;;2.08;0.65;;;20.00;97.00;;;;;;6172300;23;20346;-86
2022/05/22 13:30:00;;;;;;;2.08;0.52;;;20.20;97.70;;;;;;6136534;23;20013;-88
2022/05/22 13:32:40;;;;;;;4.32;1.60;;;20.30;97.60;;;;;;6186772;23;20021;-85
2022/05/22 13:35:36;;;;;;;2.67;0.60;;;20.40;97.30;;;;;;6186855;23;20066;-86
2022/05/22 13:38:04;;;;;;;2.22;0.68;;;20.50;96.50;;;;;;6184891;23;20020;-86
2022/05/22 13:40:57;;;;;;;2.33;1.27;;;20.50;96.30;;;;;;6187363;23;20023;-86
2022/05/22 13:43:58;;;;;;;1.95;0.50;;;20.50;96.20;;;;;;6163778;23;20054;-87
2022/05/22 13:46:46;;;;;;;2.60;0.50;;;20.40;95.80;;;;;;6189240;23;20016;-85
2022/05/22 13:53:12;;;;;;;1.80;0.50;;;20.40;95.20;;;;;;6096703;23;20018;-88
2022/05/22 13:55:41;;;;;;;1.13;0.47;;;20.40;95.60;;;;;;6156086;23;20071;-85
2022/05/22 14:00:40;;;;;;;2.23;0.60;;;20.30;93.50;;;;;;6217287;23;20024;-90
2022/05/22 14:03:32;;;;;;;0.93;0.40;;;20.30;94.20;;;;;;6218507;23;20263;-89
2022/05/22 14:06:02;;;;;;;2.08;0.50;;;20.30;94.50;;;;;;6218652;23;20020;-88
2022/05/22 14:08:34;;;;;;;1.33;0.40;;;20.30;94.30;;;;;;6245535;23;20453;-89
2022/05/22 14:11:25;;;;;;;1.58;0.50;;;20.30;94.60;;;;;;6218743;23;20016;-89
2022/05/22 14:13:59;;;;;;;2.97;0.60;;;20.20;95.30;;;;;;6218694;23;20023;-87
2022/05/22 14:16:34;;;;;;;1.23;0.40;;;20.10;95.10;;;;;;6218910;23;20082;-87
2022/05/22 14:19:10;;;;;;;3.22;0.63;;;20.00;95.00;;;;;;6244008;23;20016;-89
2022/05/22 14:21:44;;;;;;;2.00;0.67;;;20.00;95.20;;;;;;6244240;23;20437;-88
2022/05/22 14:27:34;;;;;;;2.38;0.57;;;19.90;96.30;;;;;;6245311;23;20024;-88
2022/05/22 14:30:22;;;;;;;2.03;0.50;;;19.90;96.60;;;;;;6243910;23;20013;-87
2022/05/22 14:32:54;;;;;;;4.18;0.75;;;19.90;96.90;;;;;;6218779;23;20445;-90
2022/05/22 14:35:24;;;;;;;2.28;0.60;;;19.90;97.00;;;;;;6218579;23;20016;-88
2022/05/22 14:37:50;;;;;;;2.70;0.70;;;19.90;97.10;;;;;;6218562;23;20048;-91